sensor_id;sensor_type;location;lat;lon;timestamp;temperature;humidity
68801;SHT31;55784;50.734;7.086;2023-04-01T00:01:29;12.01;73.30
68801;SHT31;55784;50.734;7.086;2023-04-01T00:03:54;12.01;73.31
68801;SHT31;55784;50.734;7.086;2023-04-01T00:06:21;11.99;73.48
68801;SHT31;55784;50.734;7.086;2023-04-01T00:08:46;12.01;73.40
68801;SHT31;55784;50.734;7.086;2023-04-01T00:11:12;12.01;73.46
68801;SHT31;55784;50.734;7.086;2023-04-01T00:13:37;11.99;73.63
68801;SHT31;55784;50.734;7.086;2023-04-01T00:16:03;11.96;73.66
68801;SHT31;55784;50.734;7.086;2023-04-01T00:18:29;11.98;73.83
68801;SHT31;55784;50.734;7.086;2023-04-01T00:20:55;11.98;73.89
68801;SHT31;55784;50.734;7.086;2023-04-01T00:23:20;11.99;74.01
68801;SHT31;55784;50.734;7.086;2023-04-01T00:25:46;12.01;73.84
68801;SHT31;55784;50.734;7.086;2023-04-01T00:28:14;12.05;73.82
68801;SHT31;55784;50.734;7.086;2023-04-01T00:30:40;11.98;73.97
68801;SHT31;55784;50.734;7.086;2023-04-01T00:33:05;11.95;73.94
68801;SHT31;55784;50.734;7.086;2023-04-01T00:35:31;11.85;74.33
68801;SHT31;55784;50.734;7.086;2023-04-01T00:37:57;11.86;74.34
68801;SHT31;55784;50.734;7.086;2023-04-01T00:42:55;11.99;74.01
68801;SHT31;55784;50.734;7.086;2023-04-01T00:45:30;11.93;73.84
68801;SHT31;55784;50.734;7.086;2023-04-01T00:47:57;11.92;73.85
68801;SHT31;55784;50.734;7.086;2023-04-01T00:50:25;11.89;73.96
68801;SHT31;55784;50.734;7.086;2023-04-01T00:52:52;11.93;73.87
68801;SHT31;55784;50.734;7.086;2023-04-01T00:55:19;11.95;73.83
68801;SHT31;55784;50.734;7.086;2023-04-01T00:57:46;11.91;73.84
68801;SHT31;55784;50.734;7.086;2023-04-01T01:00:14;11.86;73.93
68801;SHT31;55784;50.734;7.086;2023-04-01T01:02:41;11.85;74.01
68801;SHT31;55784;50.734;7.086;2023-04-01T01:05:08;11.85;74.03
68801;SHT31;55784;50.734;7.086;2023-04-01T01:10:10;11.81;74.33
68801;SHT31;55784;50.734;7.086;2023-04-01T01:15:22;11.82;74.29
68801;SHT31;55784;50.734;7.086;2023-04-01T01:20:49;11.78;74.31
68801;SHT31;55784;50.734;7.086;2023-04-01T01:23:50;11.79;74.56
68801;SHT31;55784;50.734;7.086;2023-04-01T01:26:41;11.75;74.37
68801;SHT31;55784;50.734;7.086;2023-04-01T01:34:55;11.70;74.80
68801;SHT31;55784;50.734;7.086;2023-04-01T01:37:25;11.72;74.73
68801;SHT31;55784;50.734;7.086;2023-04-01T01:39:58;11.79;74.74
68801;SHT31;55784;50.734;7.086;2023-04-01T01:42:26;11.75;74.76
68801;SHT31;55784;50.734;7.086;2023-04-01T01:44:56;11.75;74.85
68801;SHT31;55784;50.734;7.086;2023-04-01T01:47:23;11.71;75.09
68801;SHT31;55784;50.734;7.086;2023-04-01T01:49:51;11.70;75.12
68801;SHT31;55784;50.734;7.086;2023-04-01T01:52:17;11.65;74.90
68801;SHT31;55784;50.734;7.086;2023-04-01T01:54:51;11.57;74.99
68801;SHT31;55784;50.734;7.086;2023-04-01T01:57:19;11.60;74.69
68801;SHT31;55784;50.734;7.086;2023-04-01T01:59:46;11.61;74.56
68801;SHT31;55784;50.734;7.086;2023-04-01T02:02:13;11.67;74.33
68801;SHT31;55784;50.734;7.086;2023-04-01T02:04:42;11.68;74.35
68801;SHT31;55784;50.734;7.086;2023-04-01T02:07:12;11.62;74.17
68801;SHT31;55784;50.734;7.086;2023-04-01T02:09:39;11.67;74.17
68801;SHT31;55784;50.734;7.086;2023-04-01T02:12:09;11.65;73.95
68801;SHT31;55784;50.734;7.086;2023-04-01T02:17:22;11.71;73.69
68801;SHT31;55784;50.734;7.086;2023-04-01T02:19:57;11.71;73.77
68801;SHT31;55784;50.734;7.086;2023-04-01T02:22:26;11.70;74.01
68801;SHT31;55784;50.734;7.086;2023-04-01T02:24:55;11.71;74.50
68801;SHT31;55784;50.734;7.086;2023-04-01T02:27:23;11.62;75.03
68801;SHT31;55784;50.734;7.086;2023-04-01T02:29:49;11.64;75.43
68801;SHT31;55784;50.734;7.086;2023-04-01T02:32:16;11.61;76.25
68801;SHT31;55784;50.734;7.086;2023-04-01T02:34:42;11.58;76.72
68801;SHT31;55784;50.734;7.086;2023-04-01T02:37:08;11.51;76.90
68801;SHT31;55784;50.734;7.086;2023-04-01T02:39:33;11.51;77.11
68801;SHT31;55784;50.734;7.086;2023-04-01T02:41:59;11.50;77.14
68801;SHT31;55784;50.734;7.086;2023-04-01T02:44:24;11.52;76.80
68801;SHT31;55784;50.734;7.086;2023-04-01T02:46:50;11.52;76.63
68801;SHT31;55784;50.734;7.086;2023-04-01T02:49:15;11.48;77.19
68801;SHT31;55784;50.734;7.086;2023-04-01T02:51:40;11.45;77.03
68801;SHT31;55784;50.734;7.086;2023-04-01T02:54:06;11.45;77.66
68801;SHT31;55784;50.734;7.086;2023-04-01T02:56:31;11.40;77.46
68801;SHT31;55784;50.734;7.086;2023-04-01T02:58:57;11.41;77.77
68801;SHT31;55784;50.734;7.086;2023-04-01T03:01:22;11.38;78.19
68801;SHT31;55784;50.734;7.086;2023-04-01T03:03:48;11.38;78.52
68801;SHT31;55784;50.734;7.086;2023-04-01T03:06:14;11.35;78.51
68801;SHT31;55784;50.734;7.086;2023-04-01T03:08:40;11.27;78.82
68801;SHT31;55784;50.734;7.086;2023-04-01T03:11:06;11.26;79.49
68801;SHT31;55784;50.734;7.086;2023-04-01T03:13:31;11.27;79.60
68801;SHT31;55784;50.734;7.086;2023-04-01T03:15:57;11.24;79.95
68801;SHT31;55784;50.734;7.086;2023-04-01T03:18:22;11.21;80.02
68801;SHT31;55784;50.734;7.086;2023-04-01T03:20:48;11.11;80.77
68801;SHT31;55784;50.734;7.086;2023-04-01T03:23:13;11.09;81.28
68801;SHT31;55784;50.734;7.086;2023-04-01T03:25:39;11.04;80.87
68801;SHT31;55784;50.734;7.086;2023-04-01T03:28:04;11.06;80.79
68801;SHT31;55784;50.734;7.086;2023-04-01T03:30:30;11.07;80.50
68801;SHT31;55784;50.734;7.086;2023-04-01T03:32:57;11.07;79.50
68801;SHT31;55784;50.734;7.086;2023-04-01T03:35:23;11.09;79.67
68801;SHT31;55784;50.734;7.086;2023-04-01T03:37:50;11.14;79.64
68801;SHT31;55784;50.734;7.086;2023-04-01T03:40:15;11.11;79.19
68801;SHT31;55784;50.734;7.086;2023-04-01T03:42:41;11.10;78.90
68801;SHT31;55784;50.734;7.086;2023-04-01T03:45:06;11.14;78.74
68801;SHT31;55784;50.734;7.086;2023-04-01T03:47:32;11.17;78.14
68801;SHT31;55784;50.734;7.086;2023-04-01T03:49:57;11.17;78.64
68801;SHT31;55784;50.734;7.086;2023-04-01T03:52:22;11.19;78.40
68801;SHT31;55784;50.734;7.086;2023-04-01T03:54:51;11.19;78.27
68801;SHT31;55784;50.734;7.086;2023-04-01T03:57:16;11.19;78.61
68801;SHT31;55784;50.734;7.086;2023-04-01T03:59:41;11.26;78.05
68801;SHT31;55784;50.734;7.086;2023-04-01T04:02:07;11.26;77.55
68801;SHT31;55784;50.734;7.086;2023-04-01T04:04:32;11.27;77.28
68801;SHT31;55784;50.734;7.086;2023-04-01T04:07:01;11.28;77.83
68801;SHT31;55784;50.734;7.086;2023-04-01T04:09:30;11.31;77.31
68801;SHT31;55784;50.734;7.086;2023-04-01T04:11:56;11.30;77.33
68801;SHT31;55784;50.734;7.086;2023-04-01T04:14:22;11.28;77.53
68801;SHT31;55784;50.734;7.086;2023-04-01T04:16:54;11.30;76.97
68801;SHT31;55784;50.734;7.086;2023-04-01T04:19:19;11.30;77.05
68801;SHT31;55784;50.734;7.086;2023-04-01T04:21:45;11.28;77.14
68801;SHT31;55784;50.734;7.086;2023-04-01T04:24:10;11.28;77.15
68801;SHT31;55784;50.734;7.086;2023-04-01T04:26:36;11.31;77.34
68801;SHT31;55784;50.734;7.086;2023-04-01T04:29:02;11.32;77.27
68801;SHT31;55784;50.734;7.086;2023-04-01T04:31:28;11.32;77.41
68801;SHT31;55784;50.734;7.086;2023-04-01T04:33:53;11.28;77.08
68801;SHT31;55784;50.734;7.086;2023-04-01T04:36:20;11.28;77.14
68801;SHT31;55784;50.734;7.086;2023-04-01T04:38:46;11.24;77.64
68801;SHT31;55784;50.734;7.086;2023-04-01T04:41:13;11.30;77.59
68801;SHT31;55784;50.734;7.086;2023-04-01T04:43:40;11.30;77.55
68801;SHT31;55784;50.734;7.086;2023-04-01T04:46:10;11.31;77.30
68801;SHT31;55784;50.734;7.086;2023-04-01T04:48:36;11.32;77.74
68801;SHT31;55784;50.734;7.086;2023-04-01T04:51:01;11.32;77.94
68801;SHT31;55784;50.734;7.086;2023-04-01T04:53:27;11.31;78.25
68801;SHT31;55784;50.734;7.086;2023-04-01T04:55:52;11.30;78.63
68801;SHT31;55784;50.734;7.086;2023-04-01T04:58:18;11.24;78.46
68801;SHT31;55784;50.734;7.086;2023-04-01T05:00:44;11.24;79.06
68801;SHT31;55784;50.734;7.086;2023-04-01T05:03:10;11.19;79.47
68801;SHT31;55784;50.734;7.086;2023-04-01T05:05:36;11.21;79.82
68801;SHT31;55784;50.734;7.086;2023-04-01T05:08:01;11.14;79.96
68801;SHT31;55784;50.734;7.086;2023-04-01T05:10:27;11.09;79.83
68801;SHT31;55784;50.734;7.086;2023-04-01T05:12:52;11.09;80.59
68801;SHT31;55784;50.734;7.086;2023-04-01T05:15:17;11.04;80.64
68801;SHT31;55784;50.734;7.086;2023-04-01T05:17:43;11.04;81.09
68801;SHT31;55784;50.734;7.086;2023-04-01T05:20:08;11.09;81.43
68801;SHT31;55784;50.734;7.086;2023-04-01T05:22:34;11.03;82.04
68801;SHT31;55784;50.734;7.086;2023-04-01T05:24:59;11.01;81.91
68801;SHT31;55784;50.734;7.086;2023-04-01T05:27:24;11.09;81.63
68801;SHT31;55784;50.734;7.086;2023-04-01T05:29:50;11.07;81.66
68801;SHT31;55784;50.734;7.086;2023-04-01T05:32:15;11.07;81.86
68801;SHT31;55784;50.734;7.086;2023-04-01T05:34:41;11.07;81.60
68801;SHT31;55784;50.734;7.086;2023-04-01T05:37:06;11.04;81.84
68801;SHT31;55784;50.734;7.086;2023-04-01T05:39:36;11.04;81.93
68801;SHT31;55784;50.734;7.086;2023-04-01T05:42:01;11.01;81.75
68801;SHT31;55784;50.734;7.086;2023-04-01T05:44:27;11.01;81.70
68801;SHT31;55784;50.734;7.086;2023-04-01T05:46:52;11.01;82.15
68801;SHT31;55784;50.734;7.086;2023-04-01T05:49:17;11.01;82.20
68801;SHT31;55784;50.734;7.086;2023-04-01T05:51:43;11.04;81.99
68801;SHT31;55784;50.734;7.086;2023-04-01T05:54:08;11.10;81.73
68801;SHT31;55784;50.734;7.086;2023-04-01T05:56:33;11.16;81.43
68801;SHT31;55784;50.734;7.086;2023-04-01T05:58:59;11.14;81.13
68801;SHT31;55784;50.734;7.086;2023-04-01T06:01:24;11.21;81.19
68801;SHT31;55784;50.734;7.086;2023-04-01T06:03:49;11.23;81.07
68801;SHT31;55784;50.734;7.086;2023-04-01T06:06:23;11.32;81.10
68801;SHT31;55784;50.734;7.086;2023-04-01T06:08:49;11.34;80.67
68801;SHT31;55784;50.734;7.086;2023-04-01T06:11:35;11.37;80.52
68801;SHT31;55784;50.734;7.086;2023-04-01T06:17:25;11.38;80.91
68801;SHT31;55784;50.734;7.086;2023-04-01T06:20:56;11.45;81.32
68801;SHT31;55784;50.734;7.086;2023-04-01T06:47:46;11.62;81.73
68801;SHT31;55784;50.734;7.086;2023-04-01T06:53:44;11.81;81.22
68801;SHT31;55784;50.734;7.086;2023-04-01T06:56:18;11.82;81.15
68801;SHT31;55784;50.734;7.086;2023-04-01T07:01:49;11.98;81.33
68801;SHT31;55784;50.734;7.086;2023-04-01T07:04:37;11.91;81.76
68801;SHT31;55784;50.734;7.086;2023-04-01T07:07:11;12.01;81.93
68801;SHT31;55784;50.734;7.086;2023-04-01T07:09:41;12.08;81.85
68801;SHT31;55784;50.734;7.086;2023-04-01T07:12:18;12.23;81.77
68801;SHT31;55784;50.734;7.086;2023-04-01T07:14:47;12.42;81.99
68801;SHT31;55784;50.734;7.086;2023-04-01T07:17:23;12.44;81.68
68801;SHT31;55784;50.734;7.086;2023-04-01T07:19:59;12.49;82.17
68801;SHT31;55784;50.734;7.086;2023-04-01T07:22:36;12.44;81.90
68801;SHT31;55784;50.734;7.086;2023-04-01T07:25:16;12.61;81.81
68801;SHT31;55784;50.734;7.086;2023-04-01T07:27:43;12.70;80.43
68801;SHT31;55784;50.734;7.086;2023-04-01T07:30:16;12.70;79.98
68801;SHT31;55784;50.734;7.086;2023-04-01T07:33:08;12.83;79.63
68801;SHT31;55784;50.734;7.086;2023-04-01T07:35:59;12.76;80.27
68801;SHT31;55784;50.734;7.086;2023-04-01T07:43:59;12.94;79.73
68801;SHT31;55784;50.734;7.086;2023-04-01T07:49:36;12.97;79.94
68801;SHT31;55784;50.734;7.086;2023-04-01T07:55:39;13.10;79.94
68801;SHT31;55784;50.734;7.086;2023-04-01T07:58:22;13.05;80.09
68801;SHT31;55784;50.734;7.086;2023-04-01T08:01:10;13.21;80.00
68801;SHT31;55784;50.734;7.086;2023-04-01T08:04:36;12.93;79.61
68801;SHT31;55784;50.734;7.086;2023-04-01T08:06:47;12.93;80.32
68801;SHT31;55784;50.734;7.086;2023-04-01T08:12:31;12.76;80.63
68801;SHT31;55784;50.734;7.086;2023-04-01T08:20:57;12.86;80.45
68801;SHT31;55784;50.734;7.086;2023-04-01T08:23:36;13.07;80.36
68801;SHT31;55784;50.734;7.086;2023-04-01T08:26:10;13.34;79.74
68801;SHT31;55784;50.734;7.086;2023-04-01T08:28:42;13.44;78.75
68801;SHT31;55784;50.734;7.086;2023-04-01T08:31:18;13.55;78.20
68801;SHT31;55784;50.734;7.086;2023-04-01T08:33:46;13.34;78.55
68801;SHT31;55784;50.734;7.086;2023-04-01T08:36:17;13.37;78.01
68801;SHT31;55784;50.734;7.086;2023-04-01T08:38:53;13.11;79.46
68801;SHT31;55784;50.734;7.086;2023-04-01T08:47:05;13.39;79.43
68801;SHT31;55784;50.734;7.086;2023-04-01T08:52:11;13.38;78.89
68801;SHT31;55784;50.734;7.086;2023-04-01T08:55:09;13.51;79.48
68801;SHT31;55784;50.734;7.086;2023-04-01T08:58:01;13.52;79.86
68801;SHT31;55784;50.734;7.086;2023-04-01T09:00:33;13.47;80.12
68801;SHT31;55784;50.734;7.086;2023-04-01T09:08:58;13.14;80.56
68801;SHT31;55784;50.734;7.086;2023-04-01T09:14:39;13.34;80.90
68801;SHT31;55784;50.734;7.086;2023-04-01T09:17:24;13.17;81.30
68801;SHT31;55784;50.734;7.086;2023-04-01T09:30:59;13.34;82.06
68801;SHT31;55784;50.734;7.086;2023-04-01T09:34:13;12.84;81.84
68801;SHT31;55784;50.734;7.086;2023-04-01T09:36:46;13.07;82.46
68801;SHT31;55784;50.734;7.086;2023-04-01T09:44:37;13.82;79.87
68801;SHT31;55784;50.734;7.086;2023-04-01T09:52:55;14.24;77.83
68801;SHT31;55784;50.734;7.086;2023-04-01T09:58:41;13.96;76.89
68801;SHT31;55784;50.734;7.086;2023-04-01T10:01:27;14.19;77.79
68801;SHT31;55784;50.734;7.086;2023-04-01T10:12:41;13.92;75.76
68801;SHT31;55784;50.734;7.086;2023-04-01T10:21:16;13.80;76.13
68801;SHT31;55784;50.734;7.086;2023-04-01T10:58:22;15.05;73.46
68801;SHT31;55784;50.734;7.086;2023-04-01T11:01:10;15.24;73.44
68801;SHT31;55784;50.734;7.086;2023-04-01T11:18:11;14.80;77.02
68801;SHT31;55784;50.734;7.086;2023-04-01T11:41:19;14.29;78.49
68801;SHT31;55784;50.734;7.086;2023-04-01T11:46:46;13.95;78.49
68801;SHT31;55784;50.734;7.086;2023-04-01T12:00:32;13.61;78.74
68801;SHT31;55784;50.734;7.086;2023-04-01T12:06:08;13.55;78.99
68801;SHT31;55784;50.734;7.086;2023-04-01T12:08:50;13.55;79.81
68801;SHT31;55784;50.734;7.086;2023-04-01T12:11:34;13.80;78.62
68801;SHT31;55784;50.734;7.086;2023-04-01T12:14:27;13.61;78.95
68801;SHT31;55784;50.734;7.086;2023-04-01T12:17:07;13.66;79.16
68801;SHT31;55784;50.734;7.086;2023-04-01T12:19:58;13.45;78.95
68801;SHT31;55784;50.734;7.086;2023-04-01T12:37:45;13.87;78.60
68801;SHT31;55784;50.734;7.086;2023-04-01T12:40:28;14.02;77.66
68801;SHT31;55784;50.734;7.086;2023-04-01T12:49:41;13.79;78.12
68801;SHT31;55784;50.734;7.086;2023-04-01T12:52:14;13.57;77.54
68801;SHT31;55784;50.734;7.086;2023-04-01T13:06:15;13.12;82.26
68801;SHT31;55784;50.734;7.086;2023-04-01T13:08:55;13.24;82.39
68801;SHT31;55784;50.734;7.086;2023-04-01T13:11:48;13.35;82.37
68801;SHT31;55784;50.734;7.086;2023-04-01T13:14:44;13.15;81.80
68801;SHT31;55784;50.734;7.086;2023-04-01T13:19:58;13.52;81.54
68801;SHT31;55784;50.734;7.086;2023-04-01T13:25:24;13.65;80.37
68801;SHT31;55784;50.734;7.086;2023-04-01T13:28:00;13.58;79.47
68801;SHT31;55784;50.734;7.086;2023-04-01T13:34:00;13.79;78.77
68801;SHT31;55784;50.734;7.086;2023-04-01T13:49:46;14.23;77.31
68801;SHT31;55784;50.734;7.086;2023-04-01T14:11:45;14.24;76.14
68801;SHT31;55784;50.734;7.086;2023-04-01T14:17:27;14.64;74.96
68801;SHT31;55784;50.734;7.086;2023-04-01T14:20:17;14.37;75.55
68801;SHT31;55784;50.734;7.086;2023-04-01T14:28:49;14.59;75.62
68801;SHT31;55784;50.734;7.086;2023-04-01T14:32:06;14.29;74.38
68801;SHT31;55784;50.734;7.086;2023-04-01T14:34:18;14.20;75.14
68801;SHT31;55784;50.734;7.086;2023-04-01T14:40:26;14.10;74.71
68801;SHT31;55784;50.734;7.086;2023-04-01T14:54:32;14.43;75.16
68801;SHT31;55784;50.734;7.086;2023-04-01T14:59:51;14.24;74.33
68801;SHT31;55784;50.734;7.086;2023-04-01T15:02:46;13.86;74.60
68801;SHT31;55784;50.734;7.086;2023-04-01T15:19:14;14.12;75.64
68801;SHT31;55784;50.734;7.086;2023-04-01T15:24:46;13.58;76.48
68801;SHT31;55784;50.734;7.086;2023-04-01T15:27:24;13.49;76.60
68801;SHT31;55784;50.734;7.086;2023-04-01T15:32:57;13.47;76.67
68801;SHT31;55784;50.734;7.086;2023-04-01T15:35:40;13.38;77.77
68801;SHT31;55784;50.734;7.086;2023-04-01T15:43:59;13.45;79.78
68801;SHT31;55784;50.734;7.086;2023-04-01T15:46:46;13.42;79.50
68801;SHT31;55784;50.734;7.086;2023-04-01T15:49:32;13.11;79.84
68801;SHT31;55784;50.734;7.086;2023-04-01T15:54:56;13.28;81.27
68801;SHT31;55784;50.734;7.086;2023-04-01T15:57:44;13.25;81.52
68801;SHT31;55784;50.734;7.086;2023-04-01T16:00:27;13.18;81.90
68801;SHT31;55784;50.734;7.086;2023-04-01T16:03:18;13.14;81.93
68801;SHT31;55784;50.734;7.086;2023-04-01T16:06:10;13.08;82.08
68801;SHT31;55784;50.734;7.086;2023-04-01T16:09:12;13.05;82.42
68801;SHT31;55784;50.734;7.086;2023-04-01T16:19:56;13.03;82.74
68801;SHT31;55784;50.734;7.086;2023-04-01T16:22:40;13.00;83.55
68801;SHT31;55784;50.734;7.086;2023-04-01T16:25:45;12.86;83.32
68801;SHT31;55784;50.734;7.086;2023-04-01T16:28:17;12.70;84.40
68801;SHT31;55784;50.734;7.086;2023-04-01T16:30:57;12.72;84.50
68801;SHT31;55784;50.734;7.086;2023-04-01T16:39:18;12.74;84.57
68801;SHT31;55784;50.734;7.086;2023-04-01T16:44:49;12.73;84.18
68801;SHT31;55784;50.734;7.086;2023-04-01T16:47:19;12.61;84.18
68801;SHT31;55784;50.734;7.086;2023-04-01T16:52:17;12.57;84.29
68801;SHT31;55784;50.734;7.086;2023-04-01T16:55:04;12.57;84.04
68801;SHT31;55784;50.734;7.086;2023-04-01T17:00:30;12.42;82.96
68801;SHT31;55784;50.734;7.086;2023-04-01T17:05:48;12.23;84.51
68801;SHT31;55784;50.734;7.086;2023-04-01T17:11:10;12.18;84.20
68801;SHT31;55784;50.734;7.086;2023-04-01T17:13:50;12.15;84.45
68801;SHT31;55784;50.734;7.086;2023-04-01T17:17:01;12.09;85.08
68801;SHT31;55784;50.734;7.086;2023-04-01T17:19:45;12.09;85.33
68801;SHT31;55784;50.734;7.086;2023-04-01T17:25:13;12.06;85.06
68801;SHT31;55784;50.734;7.086;2023-04-01T17:28:07;11.99;85.10
68801;SHT31;55784;50.734;7.086;2023-04-01T17:36:16;11.92;85.15
68801;SHT31;55784;50.734;7.086;2023-04-01T17:39:24;11.88;85.22
68801;SHT31;55784;50.734;7.086;2023-04-01T17:42:09;11.82;84.90
68801;SHT31;55784;50.734;7.086;2023-04-01T17:44:51;11.79;85.49
68801;SHT31;55784;50.734;7.086;2023-04-01T17:47:22;11.79;85.62
68801;SHT31;55784;50.734;7.086;2023-04-01T17:50:29;11.78;84.92
68801;SHT31;55784;50.734;7.086;2023-04-01T17:53:12;11.75;85.45
68801;SHT31;55784;50.734;7.086;2023-04-01T17:56:07;11.74;85.29
68801;SHT31;55784;50.734;7.086;2023-04-01T18:01:46;11.58;86.00
68801;SHT31;55784;50.734;7.086;2023-04-01T18:09:45;11.52;85.89
68801;SHT31;55784;50.734;7.086;2023-04-01T18:15:21;11.40;85.80
68801;SHT31;55784;50.734;7.086;2023-04-01T18:25:48;11.35;85.49
68801;SHT31;55784;50.734;7.086;2023-04-01T18:33:36;11.32;85.74
68801;SHT31;55784;50.734;7.086;2023-04-01T18:36:49;11.30;85.83
68801;SHT31;55784;50.734;7.086;2023-04-01T18:39:36;11.27;86.11
68801;SHT31;55784;50.734;7.086;2023-04-01T18:44:50;11.26;85.38
68801;SHT31;55784;50.734;7.086;2023-04-01T18:47:30;11.24;85.62
68801;SHT31;55784;50.734;7.086;2023-04-01T18:50:11;11.21;85.40
68801;SHT31;55784;50.734;7.086;2023-04-01T18:52:45;11.24;85.64
68801;SHT31;55784;50.734;7.086;2023-04-01T18:58:35;11.21;85.65
68801;SHT31;55784;50.734;7.086;2023-04-01T19:01:22;11.27;85.45
68801;SHT31;55784;50.734;7.086;2023-04-01T19:06:43;11.19;85.87
68801;SHT31;55784;50.734;7.086;2023-04-01T19:14:52;11.14;86.07
68801;SHT31;55784;50.734;7.086;2023-04-01T19:20:33;11.14;85.66
68801;SHT31;55784;50.734;7.086;2023-04-01T19:25:40;11.09;86.11
68801;SHT31;55784;50.734;7.086;2023-04-01T19:28:39;11.06;85.85
68801;SHT31;55784;50.734;7.086;2023-04-01T19:36:54;11.09;86.74
68801;SHT31;55784;50.734;7.086;2023-04-01T19:48:29;10.92;87.05
68801;SHT31;55784;50.734;7.086;2023-04-01T19:51:07;10.89;87.21
68801;SHT31;55784;50.734;7.086;2023-04-01T20:14:19;11.04;87.40
68801;SHT31;55784;50.734;7.086;2023-04-01T20:17:15;11.09;86.87
68801;SHT31;55784;50.734;7.086;2023-04-01T20:23:21;11.09;86.36
68801;SHT31;55784;50.734;7.086;2023-04-01T20:26:12;10.95;86.05
68801;SHT31;55784;50.734;7.086;2023-04-01T20:28:43;10.86;86.70
68801;SHT31;55784;50.734;7.086;2023-04-01T20:31:31;10.83;86.93
68801;SHT31;55784;50.734;7.086;2023-04-01T20:34:26;10.84;86.95
68801;SHT31;55784;50.734;7.086;2023-04-01T22:13:16;10.90;87.35
68801;SHT31;55784;50.734;7.086;2023-04-01T22:16:40;10.89;87.52
68801;SHT31;55784;50.734;7.086;2023-04-01T22:23:40;10.87;87.79
68801;SHT31;55784;50.734;7.086;2023-04-01T22:56:12;10.83;88.73
68801;SHT31;55784;50.734;7.086;2023-04-01T23:05:22;10.83;88.87
68801;SHT31;55784;50.734;7.086;2023-04-01T23:10:43;10.84;88.35
68801;SHT31;55784;50.734;7.086;2023-04-01T23:13:16;10.86;88.42
68801;SHT31;55784;50.734;7.086;2023-04-01T23:15:43;10.83;88.56
68801;SHT31;55784;50.734;7.086;2023-04-01T23:18:18;10.86;88.74
68801;SHT31;55784;50.734;7.086;2023-04-01T23:23:38;10.93;88.66
68801;SHT31;55784;50.734;7.086;2023-04-01T23:26:13;10.89;89.03
68801;SHT31;55784;50.734;7.086;2023-04-01T23:31:33;10.79;89.74
68801;SHT31;55784;50.734;7.086;2023-04-01T23:36:46;10.83;90.04
68801;SHT31;55784;50.734;7.086;2023-04-01T23:42:12;10.83;90.17
68801;SHT31;55784;50.734;7.086;2023-04-01T23:44:39;10.84;90.11
68801;SHT31;55784;50.734;7.086;2023-04-01T23:47:06;10.80;90.06
68801;SHT31;55784;50.734;7.086;2023-04-01T23:49:36;10.79;89.97
68801;SHT31;55784;50.734;7.086;2023-04-01T23:52:17;10.84;89.93
68801;SHT31;55784;50.734;7.086;2023-04-01T23:54:55;10.83;89.88
68801;SHT31;55784;50.734;7.086;2023-04-01T23:57:27;10.81;89.81
